createdAt,value
2023-08-12T00:00:58.622Z,4.60
2023-08-12T00:03:25.716Z,4.10
2023-08-12T00:05:53.712Z,5.00
2023-08-12T00:08:20.906Z,5.85
2023-08-12T00:10:47.835Z,4.65
2023-08-12T00:13:18.436Z,5.60
2023-08-12T00:15:46.086Z,6.28
2023-08-12T00:18:13.199Z,5.43
2023-08-12T00:20:40.505Z,6.70
2023-08-12T00:23:07.369Z,5.65
2023-08-12T00:25:34.326Z,7.85
2023-08-12T00:28:01.360Z,8.48
2023-08-12T00:30:28.284Z,5.90
2023-08-12T00:32:56.320Z,6.88
2023-08-12T00:35:23.229Z,5.47
2023-08-12T00:37:50.120Z,7.18
2023-08-12T00:40:17.117Z,6.15
2023-08-12T00:42:44.035Z,6.95
2023-08-12T00:45:14.112Z,7.75
2023-08-12T00:47:43.228Z,7.07
2023-08-12T00:50:13.550Z,6.50
2023-08-12T00:52:41.617Z,6.10
2023-08-12T00:55:09.031Z,6.90
2023-08-12T00:57:36.901Z,7.32
2023-08-12T01:00:05.252Z,6.88
2023-08-12T01:02:32.906Z,6.72
2023-08-12T01:05:00.324Z,6.68
2023-08-12T01:07:27.858Z,6.53
2023-08-12T01:09:54.970Z,5.60
2023-08-12T01:12:38.018Z,5.65
2023-08-12T01:15:21.863Z,5.93
2023-08-12T01:17:53.318Z,5.90
2023-08-12T01:20:27.495Z,5.38
2023-08-12T01:23:15.364Z,5.63
2023-08-12T01:25:43.811Z,5.70
2023-08-12T01:28:10.969Z,5.25
2023-08-12T01:31:12.729Z,5.32
2023-08-12T01:33:53.871Z,4.80
2023-08-12T01:36:22.523Z,6.72
2023-08-12T01:38:52.312Z,6.20
2023-08-12T01:41:23.512Z,5.47
2023-08-12T01:43:50.804Z,5.18
2023-08-12T01:46:17.963Z,5.97
2023-08-12T01:48:44.973Z,5.45
2023-08-12T01:51:13.038Z,5.22
2023-08-12T01:53:40.016Z,6.63
2023-08-12T01:56:06.929Z,6.13
2023-08-12T01:58:33.813Z,6.28
2023-08-12T02:01:00.763Z,5.95
2023-08-12T02:03:27.921Z,5.68
2023-08-12T02:05:54.912Z,5.88
2023-08-12T02:08:22.462Z,5.35
2023-08-12T02:10:49.610Z,8.95
2023-08-12T02:13:16.485Z,7.90
2023-08-12T02:15:44.579Z,6.93
2023-08-12T02:18:14.546Z,5.47
2023-08-12T02:20:44.545Z,5.95
2023-08-12T02:23:11.580Z,5.60
2023-08-12T02:25:38.487Z,5.88
2023-08-12T02:28:06.311Z,5.53
2023-08-12T02:30:34.046Z,5.70
2023-08-12T02:33:00.928Z,6.20
2023-08-12T02:35:28.138Z,6.97
2023-08-12T02:37:55.043Z,7.00
2023-08-12T02:40:22.723Z,7.60
2023-08-12T02:42:49.625Z,6.95
2023-08-12T02:45:19.137Z,7.45
2023-08-12T02:47:46.088Z,7.32
2023-08-12T02:50:13.015Z,8.05
2023-08-12T02:52:39.935Z,7.57
2023-08-12T02:55:07.288Z,8.88
2023-08-12T02:57:34.541Z,8.80
2023-08-12T03:00:01.462Z,8.55
2023-08-12T03:02:28.552Z,8.27
2023-08-12T03:04:55.581Z,8.57
2023-08-12T03:07:22.555Z,8.10
2023-08-12T03:09:49.567Z,8.93
2023-08-12T03:12:16.582Z,9.00
2023-08-12T03:14:43.565Z,8.38
2023-08-12T03:17:11.758Z,9.00
2023-08-12T03:19:39.006Z,9.18
2023-08-12T03:22:06.310Z,8.82
2023-08-12T03:24:33.632Z,8.73
2023-08-12T03:27:01.370Z,9.13
2023-08-12T03:29:29.275Z,9.57
2023-08-12T03:31:56.366Z,9.05
2023-08-12T03:34:24.500Z,9.75
2023-08-12T03:36:51.699Z,10.15
2023-08-12T03:39:20.273Z,8.98
2023-08-12T03:41:47.833Z,8.73
2023-08-12T03:44:15.384Z,9.10
2023-08-12T03:46:43.138Z,10.43
2023-08-12T03:49:10.326Z,9.82
2023-08-12T03:51:37.308Z,10.38
2023-08-12T03:54:05.024Z,9.93
2023-08-12T03:56:32.716Z,9.45
2023-08-12T03:59:01.080Z,9.70
2023-08-12T04:01:28.089Z,10.27
2023-08-12T04:03:55.102Z,9.65
2023-08-12T04:06:22.080Z,10.63
2023-08-12T04:08:49.097Z,10.40
2023-08-12T04:11:16.048Z,10.00
2023-08-12T04:13:42.880Z,9.85
2023-08-12T04:16:13.275Z,10.20
2023-08-12T04:18:40.230Z,9.43
2023-08-12T04:21:07.222Z,9.93
2023-08-12T04:23:34.287Z,9.75
2023-08-12T04:26:01.514Z,10.48
2023-08-12T04:28:29.189Z,9.82
2023-08-12T04:30:56.173Z,9.75
2023-08-12T04:33:25.184Z,10.05
2023-08-12T04:35:54.762Z,9.95
2023-08-12T04:38:22.968Z,9.15
2023-08-12T04:40:55.225Z,8.73
2023-08-12T04:43:22.733Z,10.02
2023-08-12T04:45:50.237Z,9.48
2023-08-12T04:48:19.891Z,8.45
2023-08-12T04:50:46.874Z,9.00
2023-08-12T04:53:13.861Z,9.15
2023-08-12T04:55:41.505Z,9.05
2023-08-12T04:58:08.853Z,8.45
2023-08-12T05:00:36.483Z,8.45
2023-08-12T05:03:03.804Z,8.65
2023-08-12T05:05:30.847Z,9.07
2023-08-12T05:07:57.918Z,9.02
2023-08-12T05:10:24.888Z,8.57
2023-08-12T05:12:55.161Z,8.55
2023-08-12T05:15:22.370Z,9.50
2023-08-12T05:17:49.961Z,8.45
2023-08-12T05:20:20.220Z,8.45
2023-08-12T05:22:47.811Z,9.18
2023-08-12T05:25:14.844Z,9.05
2023-08-12T05:27:42.560Z,9.13
2023-08-12T05:30:10.027Z,8.93
2023-08-12T05:32:37.090Z,9.43
2023-08-12T05:35:04.401Z,9.52
2023-08-12T05:37:31.371Z,9.50
2023-08-12T05:39:58.420Z,9.60
2023-08-12T05:42:25.367Z,9.65
2023-08-12T05:44:52.394Z,9.13
2023-08-12T05:47:19.295Z,9.00
2023-08-12T05:49:46.308Z,9.48
2023-08-12T05:52:13.397Z,8.63
2023-08-12T05:54:40.460Z,10.00
2023-08-12T05:57:07.412Z,9.55
2023-08-12T05:59:34.288Z,9.57
2023-08-12T06:02:01.146Z,8.98
2023-08-12T06:04:28.086Z,9.48
2023-08-12T06:06:54.962Z,9.10
2023-08-12T06:09:23.334Z,8.95
2023-08-12T06:11:50.277Z,8.68
2023-08-12T06:14:17.119Z,8.35
2023-08-12T06:16:44.078Z,8.57
2023-08-12T06:19:11.458Z,8.25
2023-08-12T06:21:38.422Z,8.10
2023-08-12T06:24:05.714Z,7.35
2023-08-12T06:26:32.627Z,6.40
2023-08-12T06:28:59.529Z,5.40
2023-08-12T06:31:26.658Z,5.63
2023-08-12T06:33:53.688Z,4.88
2023-08-12T06:36:20.649Z,4.00
2023-08-12T06:38:47.550Z,3.20
2023-08-12T06:41:14.608Z,3.05
2023-08-12T06:43:41.616Z,3.92
2023-08-12T06:46:08.763Z,3.22
2023-08-12T06:48:35.860Z,3.65
2023-08-12T06:51:08.051Z,2.90
2023-08-12T06:53:34.888Z,2.40
2023-08-12T06:56:01.823Z,2.40
2023-08-12T06:58:28.977Z,2.42
2023-08-12T07:00:56.038Z,2.53
2023-08-12T07:03:24.099Z,2.50
2023-08-12T07:05:51.275Z,2.63
2023-08-12T07:08:18.316Z,2.83
2023-08-12T07:10:45.280Z,2.47
2023-08-12T07:13:12.298Z,2.78
2023-08-12T07:15:39.207Z,2.83
2023-08-12T07:18:06.655Z,2.92
2023-08-12T07:20:34.098Z,2.63
2023-08-12T07:23:00.998Z,2.70
2023-08-12T07:25:27.930Z,2.60
2023-08-12T07:27:54.911Z,2.83
2023-08-12T07:30:21.991Z,2.20
2023-08-12T07:32:48.876Z,2.88
2023-08-12T07:35:15.846Z,2.40
2023-08-12T07:37:42.781Z,2.70
2023-08-12T07:40:10.743Z,2.80
2023-08-12T07:42:37.672Z,2.83
2023-08-12T07:45:06.243Z,2.63
2023-08-12T07:47:33.125Z,2.92
2023-08-12T07:49:59.989Z,2.40
2023-08-12T07:52:30.191Z,2.35
2023-08-12T07:54:57.065Z,2.58
2023-08-12T07:57:25.237Z,2.10
2023-08-12T07:59:52.735Z,2.33
2023-08-12T08:02:19.778Z,2.22
2023-08-12T08:04:50.045Z,2.40
2023-08-12T08:07:17.932Z,1.73
2023-08-12T08:09:45.355Z,1.67
2023-08-12T08:12:13.263Z,1.45
2023-08-12T08:14:40.658Z,1.30
2023-08-12T08:17:07.632Z,1.45
2023-08-12T08:19:34.794Z,1.60
2023-08-12T08:22:01.777Z,1.40
2023-08-12T08:24:28.750Z,1.02
2023-08-12T08:26:55.693Z,1.30
2023-08-12T08:29:22.985Z,1.00
2023-08-12T08:31:50.204Z,1.00
2023-08-12T08:34:17.525Z,1.20
2023-08-12T08:36:44.606Z,0.85
2023-08-12T08:39:12.107Z,1.15
2023-08-12T08:41:41.369Z,1.30
2023-08-12T08:44:14.735Z,1.05
2023-08-12T08:46:44.769Z,1.23
2023-08-12T08:49:15.463Z,1.02
2023-08-12T08:51:44.036Z,1.58
2023-08-12T08:54:12.563Z,1.13
2023-08-12T08:56:47.967Z,0.90
2023-08-12T08:59:18.255Z,1.08
2023-08-12T09:01:48.334Z,1.15
2023-08-12T09:04:18.305Z,1.30
2023-08-12T09:06:46.151Z,1.20
2023-08-12T09:09:17.903Z,1.02
2023-08-12T09:11:46.510Z,1.40
2023-08-12T09:14:14.480Z,1.10
2023-08-12T09:16:41.606Z,0.98
2023-08-12T09:19:09.586Z,1.70
2023-08-12T09:21:37.110Z,1.50
2023-08-12T09:24:05.730Z,1.05
2023-08-12T09:26:32.730Z,1.20
2023-08-12T09:29:00.471Z,1.45
2023-08-12T09:31:30.667Z,1.38
2023-08-12T09:34:07.715Z,1.30
2023-08-12T09:36:35.861Z,1.48
2023-08-12T09:39:09.883Z,1.48
2023-08-12T09:41:38.869Z,1.40
2023-08-12T09:44:06.461Z,1.30
2023-08-12T09:46:36.388Z,1.40
2023-08-12T09:49:05.589Z,1.15
2023-08-12T09:51:37.853Z,1.40
2023-08-12T09:54:05.568Z,1.30
2023-08-12T09:56:38.380Z,1.35
2023-08-12T09:59:10.798Z,1.70
2023-08-12T10:01:39.527Z,1.27
2023-08-12T10:04:15.681Z,1.35
2023-08-12T10:06:43.699Z,1.60
2023-08-12T10:09:12.214Z,1.45
2023-08-12T10:11:40.665Z,1.30
2023-08-12T10:14:09.843Z,1.60
2023-08-12T10:16:37.864Z,2.05
2023-08-12T10:19:07.425Z,1.60
2023-08-12T10:21:35.859Z,1.60
2023-08-12T10:24:06.110Z,2.00
2023-08-12T10:26:34.020Z,1.92
2023-08-12T10:29:01.460Z,2.28
2023-08-12T10:31:30.019Z,1.67
2023-08-12T10:33:58.740Z,1.83
2023-08-12T10:36:28.546Z,1.73
2023-08-12T10:38:57.384Z,1.90
2023-08-12T10:41:26.248Z,1.70
2023-08-12T10:44:02.496Z,1.63
2023-08-12T10:46:34.134Z,2.10
2023-08-12T10:49:13.232Z,2.40
2023-08-12T10:51:48.653Z,1.88
2023-08-12T10:54:23.944Z,1.67
2023-08-12T10:57:06.410Z,1.50
2023-08-12T10:59:45.815Z,1.52
2023-08-12T11:02:41.379Z,1.33
2023-08-12T11:05:10.358Z,1.48
2023-08-12T11:07:44.202Z,1.95
2023-08-12T11:10:11.097Z,1.35
2023-08-12T11:12:39.239Z,1.85
2023-08-12T11:15:07.484Z,1.30
2023-08-12T11:17:41.150Z,1.50
2023-08-12T11:20:11.788Z,1.63
2023-08-12T11:22:44.382Z,1.42
2023-08-12T11:25:14.320Z,1.85
2023-08-12T11:27:44.926Z,1.65
2023-08-12T11:30:18.682Z,1.65
2023-08-12T11:32:52.983Z,1.75
2023-08-12T11:35:23.525Z,1.67
2023-08-12T11:37:54.292Z,1.50
2023-08-12T11:40:21.702Z,1.40
2023-08-12T11:42:51.499Z,1.42
2023-08-12T11:45:24.697Z,1.55
2023-08-12T11:47:56.413Z,1.58
2023-08-12T11:50:26.509Z,1.50
2023-08-12T11:52:57.776Z,1.75
2023-08-12T11:55:25.921Z,1.60
2023-08-12T11:57:53.748Z,1.10
2023-08-12T12:00:21.749Z,1.70
2023-08-12T12:02:56.643Z,1.38
2023-08-12T12:05:35.781Z,1.42
2023-08-12T12:08:03.325Z,1.50
2023-08-12T12:10:35.329Z,1.08
2023-08-12T12:13:05.398Z,1.30
2023-08-12T12:15:42.025Z,1.52
2023-08-12T12:18:14.008Z,1.52
2023-08-12T12:21:00.625Z,1.60
2023-08-12T12:23:31.688Z,1.10
2023-08-12T12:26:05.093Z,1.17
2023-08-12T12:28:32.658Z,1.55
2023-08-12T12:30:59.879Z,1.98
2023-08-12T12:33:26.767Z,1.00
2023-08-12T12:35:58.642Z,1.40
2023-08-12T12:38:27.867Z,1.48
2023-08-12T12:40:54.940Z,1.63
2023-08-12T12:43:21.788Z,2.40
2023-08-12T12:45:48.742Z,1.52
2023-08-12T12:48:15.666Z,1.55
2023-08-12T12:50:42.602Z,1.20
2023-08-12T12:53:09.687Z,2.00
2023-08-12T12:55:36.698Z,1.20
2023-08-12T12:58:03.940Z,1.50
2023-08-12T13:00:30.826Z,1.60
2023-08-12T13:02:57.828Z,2.00
2023-08-12T13:05:24.767Z,1.98
2023-08-12T13:07:51.682Z,2.17
2023-08-12T13:10:18.697Z,1.60
2023-08-12T13:12:45.792Z,1.73
2023-08-12T13:15:12.921Z,1.70
2023-08-12T13:17:39.956Z,1.70
2023-08-12T13:20:07.910Z,1.90
2023-08-12T13:22:34.772Z,2.00
2023-08-12T13:25:02.052Z,1.65
2023-08-12T13:27:33.949Z,1.60
2023-08-12T13:30:00.855Z,1.77
2023-08-12T13:32:28.019Z,1.60
2023-08-12T13:34:54.997Z,1.60
2023-08-12T13:37:21.966Z,1.65
2023-08-12T13:39:49.115Z,1.70
2023-08-12T13:42:16.108Z,2.08
2023-08-12T13:44:43.099Z,1.80
2023-08-12T13:47:10.166Z,1.80
2023-08-12T13:49:37.266Z,1.65
2023-08-12T13:52:04.434Z,1.48
2023-08-12T13:54:31.354Z,1.60
2023-08-12T13:57:00.555Z,1.38
2023-08-12T13:59:27.515Z,1.70
2023-08-12T14:01:54.565Z,1.50
2023-08-12T14:04:21.583Z,1.67
2023-08-12T14:06:49.667Z,1.63
2023-08-12T14:09:19.316Z,1.98
2023-08-12T14:11:46.212Z,1.30
2023-08-12T14:14:13.131Z,1.63
2023-08-12T14:16:40.043Z,1.95
2023-08-12T14:19:07.228Z,2.00
2023-08-12T14:21:34.106Z,2.30
2023-08-12T14:24:00.965Z,1.90
2023-08-12T14:26:27.832Z,1.65
2023-08-12T14:28:54.709Z,1.60
2023-08-12T14:31:21.642Z,1.80
2023-08-12T14:33:48.558Z,2.03
2023-08-12T14:36:15.454Z,2.42
2023-08-12T14:38:42.466Z,2.45
2023-08-12T14:41:09.451Z,2.35
2023-08-12T14:43:37.965Z,1.83
2023-08-12T14:46:04.941Z,1.98
2023-08-12T14:48:33.133Z,1.60
2023-08-12T14:51:00.340Z,2.25
2023-08-12T14:53:27.271Z,2.42
2023-08-12T14:55:54.421Z,3.08
2023-08-12T14:58:21.378Z,1.88
2023-08-12T15:00:48.654Z,1.90
2023-08-12T15:03:16.135Z,1.75
2023-08-12T15:05:43.107Z,2.30
2023-08-12T15:08:09.953Z,1.90
2023-08-12T15:10:36.913Z,2.22
2023-08-12T15:13:04.030Z,2.25
2023-08-12T15:15:30.957Z,1.77
2023-08-12T15:17:58.268Z,2.30
2023-08-12T15:20:25.288Z,2.28
2023-08-12T15:22:52.183Z,2.17
2023-08-12T15:25:19.017Z,1.67
2023-08-12T15:27:45.919Z,2.03
2023-08-12T15:30:13.060Z,2.00
2023-08-12T15:32:42.731Z,2.30
2023-08-12T15:35:10.772Z,2.03
2023-08-12T15:37:37.794Z,2.47
2023-08-12T15:40:06.234Z,2.22
2023-08-12T15:42:33.976Z,1.95
2023-08-12T15:45:02.977Z,2.22
2023-08-12T15:47:30.382Z,2.05
2023-08-12T15:49:57.855Z,1.98
2023-08-12T15:52:25.160Z,1.80
2023-08-12T15:54:52.117Z,2.10
2023-08-12T15:57:19.064Z,1.95
2023-08-12T15:59:46.867Z,1.98
2023-08-12T16:02:13.961Z,1.95
2023-08-12T16:04:41.007Z,2.30
2023-08-12T16:07:08.533Z,2.20
2023-08-12T16:09:35.500Z,2.58
2023-08-12T16:12:02.423Z,2.42
2023-08-12T16:14:33.397Z,1.85
2023-08-12T16:17:00.323Z,2.13
2023-08-12T16:19:29.514Z,2.33
2023-08-12T16:21:58.003Z,1.90
2023-08-12T16:24:24.853Z,1.92
2023-08-12T16:26:51.781Z,1.52
2023-08-12T16:29:18.727Z,2.58
2023-08-12T16:31:45.611Z,4.63
2023-08-12T16:34:12.619Z,4.57
2023-08-12T16:36:39.512Z,4.57
2023-08-12T16:39:09.928Z,3.20
2023-08-12T16:41:37.470Z,3.50
2023-08-12T16:44:04.811Z,2.75
2023-08-12T16:46:31.897Z,3.03
2023-08-12T16:48:58.830Z,2.08
2023-08-12T16:51:27.335Z,1.83
2023-08-12T16:53:54.289Z,1.60
2023-08-12T16:56:21.217Z,2.25
2023-08-12T16:58:48.167Z,1.77
2023-08-12T17:01:15.276Z,1.67
2023-08-12T17:03:42.497Z,1.98
2023-08-12T17:06:10.236Z,2.00
2023-08-12T17:08:37.158Z,1.90
2023-08-12T17:11:10.106Z,1.60
2023-08-12T17:13:37.957Z,1.65
2023-08-12T17:16:05.357Z,1.63
2023-08-12T17:18:32.395Z,1.98
2023-08-12T17:20:59.429Z,1.42
2023-08-12T17:23:26.391Z,2.03
2023-08-12T17:25:53.374Z,1.60
2023-08-12T17:28:20.571Z,1.42
2023-08-12T17:30:47.617Z,1.40
2023-08-12T17:33:14.697Z,1.80
2023-08-12T17:35:41.687Z,1.48
2023-08-12T17:38:09.138Z,1.95
2023-08-12T17:40:35.995Z,1.90
2023-08-12T17:43:03.062Z,1.70
2023-08-12T17:45:29.912Z,1.65
2023-08-12T17:48:04.998Z,1.75
2023-08-12T17:50:32.056Z,1.50
2023-08-12T17:52:59.218Z,1.42
2023-08-12T17:55:26.435Z,1.83
2023-08-12T17:57:53.413Z,1.48
2023-08-12T18:00:22.949Z,2.28
2023-08-12T18:02:50.487Z,2.58
2023-08-12T18:05:17.504Z,1.85
2023-08-12T18:07:44.609Z,1.75
2023-08-12T18:10:12.592Z,2.00
2023-08-12T18:12:39.614Z,2.38
2023-08-12T18:15:08.093Z,1.90
2023-08-12T18:17:35.441Z,1.92
2023-08-12T18:20:02.910Z,2.15
2023-08-12T18:22:29.752Z,2.53
2023-08-12T18:24:56.659Z,2.05
2023-08-12T18:27:23.617Z,1.50
2023-08-12T18:29:50.550Z,2.30
2023-08-12T18:32:17.655Z,1.67
2023-08-12T18:34:44.542Z,2.10
2023-08-12T18:37:11.716Z,1.90
2023-08-12T18:39:38.773Z,2.08
2023-08-12T18:42:06.017Z,2.33
2023-08-12T18:44:32.969Z,1.90
2023-08-12T18:46:59.894Z,1.80
2023-08-12T18:49:26.781Z,2.17
2023-08-12T18:51:53.655Z,2.20
2023-08-12T18:54:20.605Z,2.22
2023-08-12T18:56:47.609Z,2.00
2023-08-12T18:59:14.451Z,2.20
2023-08-12T19:01:41.354Z,2.05
2023-08-12T19:04:08.384Z,1.63
2023-08-12T19:06:35.296Z,2.40
2023-08-12T19:09:02.170Z,2.33
2023-08-12T19:11:29.118Z,2.00
2023-08-12T19:13:55.964Z,1.88
2023-08-12T19:16:22.885Z,1.95
2023-08-12T19:18:50.380Z,2.00
2023-08-12T19:21:17.315Z,2.25
2023-08-12T19:23:44.288Z,2.28
2023-08-12T19:26:11.204Z,2.53
2023-08-12T19:28:38.114Z,2.10
2023-08-12T19:31:05.087Z,2.20
2023-08-12T19:33:32.050Z,1.92
2023-08-12T19:35:59.012Z,1.80
2023-08-12T19:38:26.058Z,2.03
2023-08-12T19:40:53.032Z,2.75
2023-08-12T19:43:20.053Z,2.28
2023-08-12T19:45:48.289Z,1.95
2023-08-12T19:48:15.618Z,2.08
2023-08-12T19:50:44.063Z,2.00
2023-08-12T19:53:11.351Z,2.35
2023-08-12T19:55:38.487Z,2.17
2023-08-12T19:58:06.372Z,1.70
2023-08-12T20:00:35.200Z,2.60
2023-08-12T20:03:02.045Z,1.50
2023-08-12T20:05:31.664Z,1.70
2023-08-12T20:07:59.474Z,1.73
2023-08-12T20:10:26.447Z,1.80
2023-08-12T20:12:54.481Z,1.92
2023-08-12T20:15:21.554Z,2.10
2023-08-12T20:17:48.791Z,1.60
2023-08-12T20:20:18.943Z,1.67
2023-08-12T20:23:03.233Z,1.98
2023-08-12T20:25:32.541Z,1.83
2023-08-12T20:27:59.938Z,1.77
2023-08-12T20:30:27.325Z,2.33
2023-08-12T20:32:55.435Z,1.90
2023-08-12T20:35:23.286Z,2.10
2023-08-12T20:37:50.742Z,1.80
2023-08-12T20:40:18.903Z,1.90
2023-08-12T20:42:46.222Z,1.95
2023-08-12T20:45:15.772Z,2.28
2023-08-12T20:47:43.493Z,2.28
2023-08-12T20:50:10.698Z,2.33
2023-08-12T20:52:37.561Z,2.15
2023-08-12T20:55:04.946Z,2.65
2023-08-12T20:57:31.923Z,2.58
2023-08-12T21:00:01.893Z,3.17
2023-08-12T21:02:29.895Z,2.40
2023-08-12T21:04:57.188Z,2.47
2023-08-12T21:07:24.259Z,2.05
2023-08-12T21:09:51.136Z,2.30
2023-08-12T21:12:18.275Z,2.20
2023-08-12T21:14:45.194Z,2.22
2023-08-12T21:17:12.362Z,2.35
2023-08-12T21:19:39.551Z,2.80
2023-08-12T21:22:06.457Z,2.60
2023-08-12T21:24:33.381Z,2.60
2023-08-12T21:27:00.319Z,2.70
2023-08-12T21:29:27.206Z,2.67
2023-08-12T21:31:54.236Z,2.30
2023-08-12T21:34:21.164Z,2.75
2023-08-12T21:36:48.059Z,2.75
2023-08-12T21:39:14.947Z,3.22
2023-08-12T21:41:41.828Z,2.50
2023-08-12T21:44:09.062Z,2.70
2023-08-12T21:46:36.179Z,2.47
2023-08-12T21:49:03.253Z,2.45
2023-08-12T21:51:30.820Z,2.08
2023-08-12T21:53:57.729Z,2.42
2023-08-12T21:56:24.672Z,2.60
2023-08-12T21:58:51.595Z,2.88
2023-08-12T22:01:18.586Z,2.85
2023-08-12T22:03:45.526Z,2.38
2023-08-12T22:06:12.464Z,2.28
2023-08-12T22:08:39.532Z,2.50
2023-08-12T22:11:06.779Z,2.50
2023-08-12T22:13:33.806Z,2.92
2023-08-12T22:16:00.864Z,2.42
2023-08-12T22:18:27.819Z,2.30
2023-08-12T22:20:55.312Z,2.97
2023-08-12T22:23:23.498Z,2.50
2023-08-12T22:25:51.508Z,2.38
2023-08-12T22:28:21.225Z,2.60
2023-08-12T22:30:49.065Z,2.65
2023-08-12T22:33:16.690Z,2.60
2023-08-12T22:35:43.860Z,2.80
2023-08-12T22:38:10.906Z,2.72
2023-08-12T22:40:38.270Z,2.40
2023-08-12T22:43:05.731Z,2.90
2023-08-12T22:45:39.666Z,2.58
2023-08-12T22:48:06.928Z,2.80
2023-08-12T22:50:33.912Z,2.40
2023-08-12T22:53:00.850Z,2.85
2023-08-12T22:55:27.719Z,2.38
2023-08-12T22:57:54.743Z,2.35
2023-08-12T23:00:21.612Z,2.40
2023-08-12T23:02:48.683Z,2.35
2023-08-12T23:05:15.618Z,2.47
2023-08-12T23:07:42.519Z,2.33
2023-08-12T23:10:10.402Z,2.20
2023-08-12T23:12:37.704Z,2.67
2023-08-12T23:15:05.647Z,2.58
2023-08-12T23:17:32.540Z,2.10
2023-08-12T23:19:59.474Z,2.30
2023-08-12T23:22:26.339Z,2.85
2023-08-12T23:24:53.263Z,1.98
2023-08-12T23:27:20.131Z,2.67
2023-08-12T23:29:47.018Z,2.20
2023-08-12T23:32:14.149Z,2.22
2023-08-12T23:34:41.415Z,2.53
2023-08-12T23:37:08.292Z,2.60
2023-08-12T23:39:35.485Z,2.25
2023-08-12T23:42:02.489Z,2.85
2023-08-12T23:44:29.446Z,2.42
2023-08-12T23:46:56.422Z,2.38
2023-08-12T23:49:23.407Z,2.45
2023-08-12T23:51:50.326Z,2.92
2023-08-12T23:54:17.317Z,2.13
2023-08-12T23:56:44.274Z,2.40
2023-08-12T23:59:11.213Z,2.00
